Time;durP1;ratioP1;P1;durP2;ratioP2;P2;SDS_P1;SDS_P2;PMS_P1;PMS_P2;Temp;Humidity;BMP_temperature;BMP_pressure;BME280_temperature;BME280_humidity;BME280_pressure;Samples;Min_cycle;Max_cycle;Signal;HPM_P1;HPM_P2
2022/12/07 00:01:32;;;;;;;11.97;10.87;;;4.70;99.90;;;;;;4992538;28;20195;-83
2022/12/07 00:04:03;;;;;;;11.73;10.63;;;4.70;99.90;;;;;;4977799;28;20600;-83
2022/12/07 00:06:29;;;;;;;12.43;11.13;;;4.60;99.90;;;;;;4977633;28;20198;-82
2022/12/07 00:08:55;;;;;;;11.60;10.50;;;4.70;99.90;;;;;;4978064;28;20227;-81
2022/12/07 00:11:22;;;;;;;10.90;9.90;;;4.70;99.90;;;;;;4985881;28;20208;-82
2022/12/07 00:13:56;;;;;;;11.63;10.43;;;4.70;99.90;;;;;;4986999;28;20282;-83
2022/12/07 00:16:24;;;;;;;11.40;10.30;;;4.70;99.90;;;;;;4983517;28;20226;-84
2022/12/07 00:18:49;;;;;;;11.60;10.50;;;4.70;99.90;;;;;;4981482;28;20272;-82
2022/12/07 00:21:17;;;;;;;11.20;10.10;;;4.90;99.90;;;;;;4980767;28;20281;-83
2022/12/07 00:23:44;;;;;;;13.93;11.03;;;4.90;99.90;;;;;;4986213;28;20263;-81
2022/12/07 00:26:18;;;;;;;12.70;11.40;;;4.90;99.90;;;;;;4989599;28;20187;-83
2022/12/07 00:28:52;;;;;;;12.47;11.27;;;4.80;99.90;;;;;;4982524;28;20231;-83
2022/12/07 00:31:19;;;;;;;13.13;11.27;;;4.80;99.90;;;;;;4981515;28;20219;-83
2022/12/07 00:33:46;;;;;;;12.80;11.50;;;4.70;99.90;;;;;;4983577;28;20217;-82
2022/12/07 00:36:15;;;;;;;11.73;10.53;;;4.80;99.90;;;;;;4982446;28;20277;-81
2022/12/07 00:38:41;;;;;;;13.73;12.33;;;4.80;99.90;;;;;;4983773;28;20191;-84
2022/12/07 00:41:09;;;;;;;14.13;11.70;;;4.70;99.90;;;;;;4981789;28;20241;-83
2022/12/07 00:43:35;;;;;;;13.30;11.47;;;4.60;99.90;;;;;;4990192;28;20277;-83
2022/12/07 00:46:00;;;;;;;15.30;12.80;;;4.60;99.90;;;;;;4989007;28;20190;-85
2022/12/07 00:48:26;;;;;;;13.37;11.97;;;4.50;99.90;;;;;;4990326;28;20629;-82
2022/12/07 00:50:52;;;;;;;12.60;11.40;;;4.60;99.90;;;;;;4983804;28;20683;-83
2022/12/07 00:53:18;;;;;;;12.60;11.10;;;4.70;99.90;;;;;;4984684;28;20199;-82
2022/12/07 00:55:44;;;;;;;13.47;11.23;;;4.80;99.90;;;;;;4979932;28;20170;-82
2022/12/07 00:58:10;;;;;;;12.53;11.23;;;4.70;99.90;;;;;;4980595;28;20258;-82
2022/12/07 01:00:38;;;;;;;11.73;10.63;;;4.80;99.90;;;;;;4992271;28;20226;-83
2022/12/07 01:03:05;;;;;;;14.70;11.87;;;4.90;99.90;;;;;;4993183;28;20222;-82
2022/12/07 01:05:31;;;;;;;12.07;10.97;;;4.90;99.90;;;;;;4987585;28;20190;-82
2022/12/07 01:07:56;;;;;;;12.73;11.30;;;5.00;99.90;;;;;;4981068;28;20253;-83
2022/12/07 01:10:22;;;;;;;12.27;11.07;;;5.00;99.90;;;;;;4985664;28;20648;-82
2022/12/07 01:12:48;;;;;;;14.63;12.90;;;5.20;99.90;;;;;;4984680;28;20282;-81
2022/12/07 01:15:14;;;;;;;13.27;11.90;;;5.10;99.90;;;;;;4985139;28;20186;-82
2022/12/07 01:17:40;;;;;;;14.70;13.20;;;4.90;99.90;;;;;;4999529;28;20197;-82
2022/12/07 01:20:06;;;;;;;13.33;12.03;;;4.80;99.90;;;;;;4980086;28;20206;-80
2022/12/07 01:22:40;;;;;;;13.70;12.30;;;4.70;99.90;;;;;;4984446;28;20202;-82
2022/12/07 01:25:07;;;;;;;15.97;14.27;;;4.50;99.90;;;;;;4988992;28;20186;-81
2022/12/07 01:27:33;;;;;;;14.87;13.37;;;4.40;99.90;;;;;;5007239;28;20182;-81
2022/12/07 01:29:59;;;;;;;15.40;13.70;;;4.30;99.90;;;;;;5002050;28;20211;-80
2022/12/07 01:32:25;;;;;;;17.93;14.03;;;4.20;99.90;;;;;;4996998;28;20187;-80
2022/12/07 01:34:51;;;;;;;15.63;13.53;;;4.10;99.90;;;;;;4982826;28;20222;-83
2022/12/07 01:37:16;;;;;;;15.70;12.83;;;4.10;99.90;;;;;;4978532;28;20661;-82
2022/12/07 01:39:42;;;;;;;15.33;13.73;;;4.10;99.90;;;;;;4979020;28;20234;-83
2022/12/07 01:42:11;;;;;;;14.87;13.40;;;4.00;99.90;;;;;;4976351;28;20179;-82
2022/12/07 01:45:15;;;;;;;15.53;13.93;;;4.00;99.90;;;;;;4981516;28;20246;-81
2022/12/07 01:47:43;;;;;;;15.00;13.23;;;3.90;99.90;;;;;;4978890;28;20590;-82
2022/12/07 01:50:09;;;;;;;16.43;14.73;;;3.90;99.90;;;;;;4976460;28;20214;-83
2022/12/07 01:52:37;;;;;;;16.03;13.90;;;3.90;99.90;;;;;;5003780;28;20264;-82
2022/12/07 01:55:09;;;;;;;16.00;13.87;;;3.90;99.90;;;;;;4991349;28;20175;-82
2022/12/07 01:57:38;;;;;;;15.33;12.97;;;4.00;99.90;;;;;;4983974;28;20223;-83
2022/12/07 02:00:06;;;;;;;15.27;12.97;;;4.10;99.90;;;;;;4990187;28;20238;-82
2022/12/07 02:03:04;;;;;;;14.33;12.80;;;4.30;99.90;;;;;;4987459;28;20261;-82
2022/12/07 02:05:31;;;;;;;14.17;12.73;;;4.40;99.90;;;;;;4978021;28;20194;-82
2022/12/07 02:07:57;;;;;;;12.53;11.23;;;4.50;99.90;;;;;;4980515;28;20225;-82
2022/12/07 02:10:29;;;;;;;12.80;11.50;;;4.50;99.90;;;;;;4977697;28;20871;-81
2022/12/07 02:13:04;;;;;;;14.33;12.73;;;4.50;99.90;;;;;;4983729;28;20202;-81
2022/12/07 02:15:48;;;;;;;15.10;13.50;;;4.50;99.90;;;;;;4978200;28;20214;-82
2022/12/07 02:18:28;;;;;;;13.80;12.40;;;4.30;99.90;;;;;;4980775;28;20285;-82
2022/12/07 02:21:16;;;;;;;13.90;12.37;;;4.20;99.90;;;;;;4977478;28;20179;-84
2022/12/07 02:24:03;;;;;;;12.63;11.33;;;4.10;99.90;;;;;;4978763;28;20195;-83
2022/12/07 02:26:44;;;;;;;13.00;11.60;;;4.30;99.90;;;;;;4978437;28;20183;-82
2022/12/07 02:29:26;;;;;;;12.33;10.97;;;4.40;99.90;;;;;;4993877;28;20210;-80
2022/12/07 02:31:55;;;;;;;12.77;11.47;;;4.60;99.90;;;;;;4983351;28;20194;-84
2022/12/07 02:34:31;;;;;;;12.77;11.53;;;4.60;99.90;;;;;;5003817;28;20214;-84
2022/12/07 02:37:06;;;;;;;13.50;11.27;;;4.50;99.90;;;;;;5013227;28;20192;-85
2022/12/07 02:39:48;;;;;;;12.40;11.17;;;4.40;99.90;;;;;;5006552;28;20272;-85
2022/12/07 02:42:23;;;;;;;13.03;11.83;;;4.40;99.90;;;;;;4977929;28;20190;-81
2022/12/07 02:44:49;;;;;;;14.53;11.90;;;4.30;99.90;;;;;;4981044;28;20256;-82
2022/12/07 02:47:19;;;;;;;13.83;12.10;;;4.30;99.90;;;;;;4984925;28;20189;-82
2022/12/07 02:49:45;;;;;;;13.20;11.80;;;4.40;99.90;;;;;;4986089;28;20314;-82
2022/12/07 02:52:11;;;;;;;13.40;12.00;;;4.30;99.90;;;;;;4983625;28;20252;-82
2022/12/07 02:54:37;;;;;;;15.07;11.97;;;4.50;99.90;;;;;;4980790;28;20211;-82
2022/12/07 02:57:36;;;;;;;13.67;11.70;;;4.50;99.90;;;;;;4982022;28;20197;-82
2022/12/07 03:00:11;;;;;;;13.47;12.10;;;4.40;99.90;;;;;;4975296;28;20193;-81
2022/12/07 03:03:06;;;;;;;16.03;12.63;;;4.40;99.90;;;;;;4978401;28;20182;-82
2022/12/07 03:05:45;;;;;;;13.40;12.00;;;4.40;99.90;;;;;;4975899;28;20210;-83
2022/12/07 03:08:34;;;;;;;13.33;11.97;;;4.30;99.90;;;;;;4979863;28;20191;-85
2022/12/07 03:11:09;;;;;;;17.03;12.97;;;4.20;99.90;;;;;;4987488;28;20248;-82
2022/12/07 03:13:59;;;;;;;14.97;13.43;;;4.10;99.90;;;;;;4980021;28;20209;-85
2022/12/07 03:16:30;;;;;;;14.70;13.13;;;4.00;99.90;;;;;;4982118;28;20208;-84
2022/12/07 03:19:04;;;;;;;14.83;13.33;;;3.80;99.90;;;;;;4979781;28;20232;-82
2022/12/07 03:21:35;;;;;;;15.77;14.10;;;3.80;99.90;;;;;;4988666;28;20608;-82
2022/12/07 03:24:07;;;;;;;16.03;13.93;;;3.70;99.90;;;;;;4985199;28;20289;-82
2022/12/07 03:26:41;;;;;;;17.03;14.63;;;3.70;99.90;;;;;;4990977;28;20186;-82
2022/12/07 03:29:15;;;;;;;17.87;14.57;;;3.70;99.90;;;;;;4980402;28;20199;-82
2022/12/07 03:31:55;;;;;;;15.50;13.90;;;3.70;99.90;;;;;;4981260;28;20192;-82
2022/12/07 03:34:36;;;;;;;16.13;14.33;;;3.80;99.90;;;;;;4979966;28;20206;-82
2022/12/07 03:37:12;;;;;;;15.00;13.23;;;3.80;99.90;;;;;;5009591;28;20187;-83
2022/12/07 03:40:14;;;;;;;17.20;13.53;;;3.80;99.90;;;;;;4980350;28;20198;-82
2022/12/07 03:42:40;;;;;;;16.30;14.07;;;3.70;99.90;;;;;;4983162;28;20197;-81
2022/12/07 03:45:07;;;;;;;17.43;13.90;;;3.60;99.90;;;;;;4987705;28;20246;-82
2022/12/07 03:48:06;;;;;;;15.30;13.40;;;3.70;99.90;;;;;;4986728;28;20641;-84
2022/12/07 03:50:49;;;;;;;17.87;13.13;;;3.80;99.90;;;;;;4983606;28;20226;-82
2022/12/07 03:53:40;;;;;;;13.90;12.47;;;3.90;99.90;;;;;;4973691;28;20211;-84
2022/12/07 03:56:07;;;;;;;13.03;11.63;;;4.00;99.90;;;;;;4989435;28;20221;-82
2022/12/07 03:58:34;;;;;;;12.13;10.93;;;4.00;99.90;;;;;;4981195;28;20184;-84
2022/12/07 04:01:01;;;;;;;13.13;11.53;;;4.00;99.90;;;;;;4990487;28;20190;-82
2022/12/07 04:03:27;;;;;;;13.77;12.27;;;4.10;99.90;;;;;;4986754;28;20691;-82
2022/12/07 04:05:53;;;;;;;14.03;12.57;;;4.10;99.90;;;;;;4996983;28;20206;-81
2022/12/07 04:08:19;;;;;;;13.40;12.00;;;4.00;99.90;;;;;;4985191;28;20187;-81
2022/12/07 04:10:44;;;;;;;14.50;13.00;;;3.90;99.90;;;;;;4987094;28;20257;-83
2022/12/07 04:13:10;;;;;;;16.10;12.07;;;3.90;99.90;;;;;;4990333;28;20210;-80
2022/12/07 04:15:36;;;;;;;14.93;13.00;;;3.90;99.90;;;;;;4988713;28;20229;-83
2022/12/07 04:18:01;;;;;;;15.93;13.60;;;3.70;99.90;;;;;;4981316;28;20179;-82
2022/12/07 04:20:27;;;;;;;15.03;13.53;;;3.80;99.90;;;;;;4982475;28;20190;-82
2022/12/07 04:22:52;;;;;;;16.03;13.40;;;3.70;99.90;;;;;;4985206;28;20233;-82
2022/12/07 04:25:18;;;;;;;15.10;13.50;;;3.70;99.90;;;;;;4980955;28;20542;-83
2022/12/07 04:27:44;;;;;;;17.50;14.33;;;3.70;99.90;;;;;;4987215;28;20800;-81
2022/12/07 04:30:10;;;;;;;14.60;13.07;;;3.70;99.90;;;;;;4978807;28;20289;-81
2022/12/07 04:32:35;;;;;;;15.93;14.07;;;3.60;99.90;;;;;;4993205;28;20182;-82
2022/12/07 04:35:01;;;;;;;17.27;14.20;;;3.60;99.90;;;;;;4978056;28;20184;-84
2022/12/07 04:37:26;;;;;;;16.00;14.30;;;3.60;99.90;;;;;;4980933;28;20194;-83
2022/12/07 04:39:52;;;;;;;17.93;14.13;;;3.50;99.90;;;;;;4979596;28;20183;-81
2022/12/07 04:42:18;;;;;;;17.73;13.90;;;3.50;99.90;;;;;;4983499;28;20279;-82
2022/12/07 04:44:44;;;;;;;16.00;13.93;;;3.50;99.90;;;;;;4981486;28;20215;-82
2022/12/07 04:47:10;;;;;;;16.50;14.63;;;3.50;99.90;;;;;;4978215;28;20183;-82
2022/12/07 04:49:35;;;;;;;15.80;14.10;;;3.60;99.90;;;;;;4979112;28;20250;-83
2022/12/07 04:52:01;;;;;;;16.73;14.97;;;3.60;99.90;;;;;;4993355;28;20190;-82
2022/12/07 04:54:27;;;;;;;15.50;13.90;;;3.60;99.90;;;;;;4985147;28;20210;-82
2022/12/07 04:56:52;;;;;;;17.53;14.53;;;3.60;99.90;;;;;;4987535;28;20234;-81
2022/12/07 04:59:18;;;;;;;14.87;13.33;;;3.70;99.90;;;;;;4980907;28;20736;-83
2022/12/07 05:01:44;;;;;;;15.87;14.07;;;3.60;99.90;;;;;;4977631;28;20187;-81
2022/12/07 05:04:09;;;;;;;18.03;14.50;;;3.60;99.90;;;;;;4983315;28;20209;-82
2022/12/07 05:06:36;;;;;;;16.43;14.03;;;3.60;99.90;;;;;;4988159;28;20832;-84
2022/12/07 05:09:02;;;;;;;16.10;14.40;;;3.60;99.90;;;;;;4979232;28;20285;-82
2022/12/07 05:11:40;;;;;;;16.80;14.23;;;3.60;99.90;;;;;;4987735;28;20266;-82
2022/12/07 05:14:14;;;;;;;15.27;13.60;;;3.70;99.90;;;;;;4987958;28;20225;-82
2022/12/07 05:16:41;;;;;;;14.63;12.67;;;3.70;99.90;;;;;;4976754;28;20289;-81
2022/12/07 05:19:08;;;;;;;17.80;14.20;;;3.70;99.90;;;;;;4977543;28;20203;-82
2022/12/07 05:21:33;;;;;;;15.43;13.27;;;3.70;99.90;;;;;;4974212;28;20602;-83
2022/12/07 05:23:59;;;;;;;15.20;13.60;;;3.70;99.90;;;;;;4982347;28;20326;-81
2022/12/07 05:26:25;;;;;;;16.40;13.20;;;3.70;99.90;;;;;;4984236;28;20203;-81
2022/12/07 05:28:52;;;;;;;16.73;13.57;;;3.60;99.90;;;;;;4979168;28;20238;-79
2022/12/07 05:31:18;;;;;;;16.67;13.90;;;3.50;99.90;;;;;;4980335;28;20261;-83
2022/12/07 05:33:44;;;;;;;16.20;14.33;;;3.50;99.90;;;;;;4988950;28;20680;-83
2022/12/07 05:36:09;;;;;;;15.00;13.10;;;3.60;99.90;;;;;;4985102;28;20629;-83
2022/12/07 05:38:35;;;;;;;14.90;13.33;;;3.60;99.90;;;;;;4979014;28;20194;-82
2022/12/07 05:41:02;;;;;;;15.43;13.87;;;3.60;99.90;;;;;;4992097;28;20193;-85
2022/12/07 05:43:28;;;;;;;16.50;14.77;;;3.60;99.90;;;;;;5000658;28;20207;-84
2022/12/07 05:45:54;;;;;;;15.53;13.50;;;3.60;99.90;;;;;;4987316;28;20661;-83
2022/12/07 05:48:20;;;;;;;14.97;13.47;;;3.80;99.90;;;;;;4975875;28;20195;-82
2022/12/07 05:50:48;;;;;;;15.00;13.07;;;3.70;99.90;;;;;;4990563;28;20206;-82
2022/12/07 05:53:14;;;;;;;14.83;13.33;;;3.80;99.90;;;;;;4985337;28;20230;-82
2022/12/07 05:55:39;;;;;;;17.40;13.77;;;3.70;99.90;;;;;;4976922;28;20217;-83
2022/12/07 06:00:49;;;;;;;15.40;13.80;;;3.70;99.90;;;;;;4974821;28;20576;-83
2022/12/07 06:03:15;;;;;;;18.43;14.10;;;3.70;99.90;;;;;;4986784;28;20206;-84
2022/12/07 06:05:41;;;;;;;17.77;14.93;;;3.50;99.90;;;;;;4983102;28;20191;-85
2022/12/07 06:08:07;;;;;;;17.27;14.53;;;3.50;99.90;;;;;;4978107;28;20190;-81
2022/12/07 06:10:33;;;;;;;19.17;15.40;;;3.50;99.90;;;;;;4990563;28;20722;-82
2022/12/07 06:12:58;;;;;;;16.70;14.67;;;3.40;99.90;;;;;;4980366;28;20210;-84
2022/12/07 06:15:24;;;;;;;18.13;14.17;;;3.50;99.90;;;;;;4981314;28;20179;-81
2022/12/07 06:17:49;;;;;;;15.83;14.17;;;3.40;99.90;;;;;;4982036;28;20179;-82
2022/12/07 06:20:15;;;;;;;20.93;14.50;;;3.40;99.90;;;;;;4980755;28;20187;-83
2022/12/07 06:22:41;;;;;;;16.20;14.07;;;3.50;99.90;;;;;;4989489;28;20211;-84
2022/12/07 06:25:07;;;;;;;16.83;14.43;;;3.40;99.90;;;;;;4982700;28;20195;-83
2022/12/07 06:27:33;;;;;;;16.83;13.33;;;3.50;99.90;;;;;;4990042;28;20187;-82
2022/12/07 06:29:59;;;;;;;15.67;13.97;;;3.40;99.90;;;;;;4978849;28;20241;-83
2022/12/07 06:32:26;;;;;;;15.30;13.70;;;3.50;99.90;;;;;;4982520;28;20210;-83
2022/12/07 06:34:52;;;;;;;15.17;13.57;;;3.50;99.90;;;;;;4985360;28;20238;-82
2022/12/07 06:37:17;;;;;;;15.40;13.77;;;3.40;99.90;;;;;;4983274;28;20307;-81
2022/12/07 06:39:43;;;;;;;15.43;12.93;;;3.50;99.90;;;;;;4984039;28;20268;-82
2022/12/07 06:42:09;;;;;;;17.13;14.00;;;3.40;99.90;;;;;;4981217;28;20187;-82
2022/12/07 06:44:34;;;;;;;16.30;14.53;;;3.40;99.90;;;;;;4986098;28;20289;-80
2022/12/07 06:47:00;;;;;;;14.83;13.30;;;3.40;99.90;;;;;;4983245;28;20210;-82
2022/12/07 06:49:26;;;;;;;16.93;14.23;;;3.40;99.90;;;;;;4997037;28;20215;-82
2022/12/07 06:51:51;;;;;;;15.27;13.30;;;3.40;99.90;;;;;;4987767;28;20247;-82
2022/12/07 06:54:17;;;;;;;15.87;14.00;;;3.40;99.90;;;;;;4991671;28;20256;-83
2022/12/07 06:56:43;;;;;;;17.33;14.20;;;3.50;99.90;;;;;;4992158;28;20213;-82
2022/12/07 06:59:09;;;;;;;15.57;13.10;;;3.40;99.90;;;;;;4989959;28;20187;-82
2022/12/07 07:01:35;;;;;;;15.87;13.43;;;3.40;99.90;;;;;;4987374;28;20187;-81
2022/12/07 07:04:01;;;;;;;18.67;13.40;;;3.40;99.90;;;;;;4984438;28;20277;-82
2022/12/07 07:06:27;;;;;;;18.17;13.93;;;3.50;99.90;;;;;;4984590;28;20207;-82
2022/12/07 07:08:52;;;;;;;14.60;12.37;;;3.50;99.90;;;;;;4989567;28;20225;-82
2022/12/07 07:11:21;;;;;;;15.53;13.70;;;3.50;99.90;;;;;;4990940;28;20189;-85
2022/12/07 07:13:47;;;;;;;18.27;14.50;;;3.50;99.90;;;;;;4982805;28;20210;-82
2022/12/07 07:16:12;;;;;;;14.30;12.83;;;3.50;99.90;;;;;;4982102;28;20193;-82
2022/12/07 07:18:38;;;;;;;14.90;13.23;;;3.50;99.90;;;;;;4984012;28;20218;-82
2022/12/07 07:21:04;;;;;;;16.03;13.43;;;3.50;99.90;;;;;;4986249;28;20187;-83
2022/12/07 07:23:30;;;;;;;14.23;12.73;;;3.50;99.90;;;;;;4985968;28;20222;-81
2022/12/07 07:25:55;;;;;;;15.90;12.80;;;3.40;99.90;;;;;;4980591;28;20206;-81
2022/12/07 07:28:22;;;;;;;13.80;12.37;;;3.50;99.90;;;;;;4978391;28;20225;-82
2022/12/07 07:30:47;;;;;;;13.33;11.60;;;3.50;99.90;;;;;;4982287;28;20378;-83
2022/12/07 07:33:13;;;;;;;13.80;11.73;;;3.40;99.90;;;;;;4984320;28;20220;-80
2022/12/07 07:35:39;;;;;;;16.33;13.23;;;3.50;99.90;;;;;;4982583;28;20192;-81
2022/12/07 07:38:05;;;;;;;16.77;13.07;;;3.40;99.90;;;;;;4979637;28;20270;-80
2022/12/07 07:40:31;;;;;;;15.70;13.33;;;3.40;99.90;;;;;;4988388;28;20240;-82
2022/12/07 07:42:57;;;;;;;16.57;14.33;;;3.40;99.90;;;;;;4985826;28;20839;-81
2022/12/07 07:45:25;;;;;;;15.03;13.40;;;3.40;99.90;;;;;;4978662;28;20202;-80
2022/12/07 07:47:51;;;;;;;14.57;12.70;;;3.40;99.90;;;;;;4995779;28;20344;-81
2022/12/07 07:50:17;;;;;;;16.03;12.57;;;3.50;99.90;;;;;;4988034;28;20693;-83
2022/12/07 07:52:43;;;;;;;15.50;12.87;;;3.60;99.90;;;;;;4983121;28;20257;-82
2022/12/07 07:55:10;;;;;;;18.67;13.43;;;3.50;99.90;;;;;;4979103;28;20282;-82
2022/12/07 07:57:37;;;;;;;15.10;13.00;;;3.50;99.90;;;;;;4982735;28;20317;-82
2022/12/07 08:00:05;;;;;;;15.83;12.97;;;3.50;99.90;;;;;;4979857;28;20226;-80
2022/12/07 08:02:31;;;;;;;14.23;12.73;;;3.50;99.90;;;;;;4983608;28;20191;-82
2022/12/07 08:04:57;;;;;;;16.10;13.03;;;3.50;99.90;;;;;;4983610;28;20202;-82
2022/12/07 08:07:22;;;;;;;14.40;12.77;;;3.50;99.90;;;;;;4984046;28;20277;-84
2022/12/07 08:09:48;;;;;;;13.83;12.37;;;3.60;99.90;;;;;;4979653;28;20223;-82
2022/12/07 08:12:14;;;;;;;15.33;12.93;;;3.50;99.90;;;;;;4998140;28;20191;-82
2022/12/07 08:14:39;;;;;;;15.37;12.57;;;3.50;99.90;;;;;;4987246;28;20280;-81
2022/12/07 08:17:05;;;;;;;15.17;12.23;;;3.50;99.90;;;;;;4986666;28;20191;-84
2022/12/07 08:19:31;;;;;;;14.20;12.37;;;3.50;99.90;;;;;;4982025;28;20214;-82
2022/12/07 08:21:56;;;;;;;13.73;11.47;;;3.60;99.90;;;;;;4985769;28;20228;-83
2022/12/07 08:24:23;;;;;;;14.40;11.83;;;3.60;99.90;;;;;;4984317;28;20225;-81
2022/12/07 08:26:49;;;;;;;14.80;11.40;;;3.50;99.90;;;;;;4990273;28;20189;-82
2022/12/07 08:29:15;;;;;;;13.73;11.67;;;3.60;99.90;;;;;;4972120;28;20270;-82
2022/12/07 08:31:41;;;;;;;14.20;11.27;;;3.70;99.90;;;;;;4979878;28;20211;-81
2022/12/07 08:34:07;;;;;;;12.87;11.47;;;3.70;99.90;;;;;;4987498;28;20210;-82
2022/12/07 08:36:32;;;;;;;12.70;11.33;;;3.80;99.90;;;;;;4993201;28;20202;-80
2022/12/07 08:38:58;;;;;;;14.07;11.37;;;3.80;99.90;;;;;;4984335;28;20191;-82
2022/12/07 08:41:24;;;;;;;13.50;10.70;;;3.90;99.90;;;;;;4987939;28;20683;-82
2022/12/07 08:43:51;;;;;;;16.60;12.53;;;3.80;99.90;;;;;;4985829;28;20223;-82
2022/12/07 08:46:28;;;;;;;13.00;11.47;;;3.70;99.90;;;;;;4989169;28;20281;-85
2022/12/07 08:48:59;;;;;;;13.00;10.73;;;3.80;99.90;;;;;;4972865;28;20206;-82
2022/12/07 08:51:25;;;;;;;11.97;10.77;;;3.70;99.90;;;;;;4985259;28;20203;-83
2022/12/07 08:53:53;;;;;;;13.93;11.57;;;3.80;99.90;;;;;;4987780;28;20203;-83
2022/12/07 08:56:20;;;;;;;12.90;11.10;;;3.90;99.90;;;;;;4985070;28;20179;-82
2022/12/07 08:58:46;;;;;;;12.67;10.77;;;3.90;99.90;;;;;;4989213;28;20649;-82
2022/12/07 09:01:11;;;;;;;11.20;9.83;;;3.90;99.90;;;;;;4990387;28;20265;-82
2022/12/07 09:03:37;;;;;;;14.57;11.50;;;4.00;99.90;;;;;;4982324;28;20206;-83
2022/12/07 09:06:03;;;;;;;12.80;11.27;;;3.90;99.90;;;;;;4989334;28;20179;-82
2022/12/07 09:08:37;;;;;;;11.67;10.47;;;4.00;99.90;;;;;;5009835;28;20190;-82
2022/12/07 09:11:03;;;;;;;13.87;10.60;;;4.10;99.90;;;;;;4999656;28;20254;-84
2022/12/07 09:13:28;;;;;;;13.50;11.57;;;3.90;99.90;;;;;;5014198;28;20207;-85
2022/12/07 09:15:54;;;;;;;12.83;11.50;;;3.80;99.90;;;;;;5005969;28;20436;-84
2022/12/07 09:18:20;;;;;;;16.30;11.70;;;3.80;99.90;;;;;;4986107;28;20202;-81
2022/12/07 09:20:45;;;;;;;13.13;11.13;;;3.80;99.90;;;;;;4984220;28;20657;-81
2022/12/07 09:23:11;;;;;;;14.20;12.10;;;3.90;99.90;;;;;;4986602;28;20215;-80
2022/12/07 09:25:37;;;;;;;12.90;11.53;;;3.90;99.90;;;;;;4983765;28;20590;-81
2022/12/07 09:28:02;;;;;;;14.23;11.73;;;3.90;99.90;;;;;;4981891;28;20560;-82
2022/12/07 09:30:28;;;;;;;13.07;11.67;;;3.90;99.90;;;;;;4984321;28;20215;-81
2022/12/07 09:32:56;;;;;;;13.63;12.03;;;4.00;99.90;;;;;;4988179;28;20289;-82
2022/12/07 09:35:23;;;;;;;12.10;10.83;;;4.10;99.90;;;;;;4981301;28;20191;-82
2022/12/07 09:37:48;;;;;;;13.90;11.70;;;4.00;99.90;;;;;;4980815;28;20290;-84
2022/12/07 09:40:16;;;;;;;15.13;11.93;;;3.90;99.90;;;;;;4980870;28;20677;-81
2022/12/07 09:42:47;;;;;;;12.70;11.40;;;4.10;99.90;;;;;;5000981;28;20265;-82
2022/12/07 09:45:35;;;;;;;14.93;12.20;;;4.00;99.90;;;;;;4989727;28;20236;-82
2022/12/07 09:48:03;;;;;;;12.43;11.10;;;4.10;99.90;;;;;;4988322;28;20190;-82
2022/12/07 09:50:29;;;;;;;14.73;11.90;;;4.00;99.90;;;;;;4980564;28;20218;-82
2022/12/07 09:53:07;;;;;;;13.73;12.23;;;4.00;99.90;;;;;;5000123;28;20214;-86
2022/12/07 09:55:35;;;;;;;12.07;10.70;;;4.10;99.90;;;;;;4991724;28;21139;-81
2022/12/07 09:58:01;;;;;;;13.87;12.13;;;4.20;99.90;;;;;;4979004;28;20274;-83
2022/12/07 10:00:28;;;;;;;14.40;11.67;;;4.10;99.90;;;;;;4978497;28;20736;-82
2022/12/07 10:02:59;;;;;;;12.83;10.97;;;4.00;99.90;;;;;;4978857;28;20214;-83
2022/12/07 10:05:30;;;;;;;13.13;11.70;;;4.10;99.90;;;;;;4983699;28;20191;-83
2022/12/07 10:07:55;;;;;;;12.37;11.07;;;4.10;99.90;;;;;;4979695;28;20187;-83
2022/12/07 10:10:31;;;;;;;13.17;11.80;;;4.00;99.90;;;;;;4978993;28;20222;-84
2022/12/07 10:13:15;;;;;;;13.77;10.63;;;4.20;99.90;;;;;;4993566;28;20238;-81
2022/12/07 10:15:40;;;;;;;14.27;11.00;;;4.10;99.90;;;;;;4985450;28;20332;-83
2022/12/07 10:18:21;;;;;;;13.50;11.17;;;4.20;99.90;;;;;;4981269;28;20740;-83
2022/12/07 10:20:47;;;;;;;12.83;10.47;;;4.30;99.90;;;;;;4981518;28;20191;-83
2022/12/07 10:23:18;;;;;;;15.27;10.70;;;4.40;99.90;;;;;;4984072;28;20767;-83
2022/12/07 10:25:44;;;;;;;13.97;11.33;;;4.30;99.90;;;;;;4986125;28;20267;-83
2022/12/07 10:28:19;;;;;;;12.93;11.43;;;4.20;99.90;;;;;;4980408;28;20561;-84
2022/12/07 10:31:03;;;;;;;13.87;11.37;;;4.20;99.90;;;;;;4982237;28;20209;-82
2022/12/07 10:33:31;;;;;;;12.70;11.40;;;4.20;99.90;;;;;;4978504;28;20206;-83
2022/12/07 10:35:58;;;;;;;13.00;10.67;;;4.20;99.90;;;;;;4984533;28;20183;-81
2022/12/07 10:38:26;;;;;;;15.40;11.67;;;4.20;99.90;;;;;;4979545;28;20178;-83
2022/12/07 10:41:06;;;;;;;14.47;12.13;;;4.30;99.90;;;;;;4982998;28;20209;-84
2022/12/07 10:43:32;;;;;;;12.00;10.77;;;4.30;99.90;;;;;;4977055;28;20207;-83
2022/12/07 10:46:41;;;;;;;13.90;11.87;;;4.30;99.90;;;;;;4978696;28;20240;-83
2022/12/07 10:49:29;;;;;;;11.50;10.30;;;4.10;99.90;;;;;;4980320;28;20294;-82
2022/12/07 10:52:32;;;;;;;13.40;11.50;;;4.10;99.90;;;;;;4985443;28;20186;-82
2022/12/07 10:55:23;;;;;;;15.70;10.97;;;4.30;99.90;;;;;;4983401;28;20189;-82
2022/12/07 10:58:13;;;;;;;13.07;11.13;;;4.40;99.90;;;;;;4976761;28;20190;-82
2022/12/07 11:01:17;;;;;;;11.60;10.40;;;4.40;99.90;;;;;;4998416;28;20277;-82
2022/12/07 11:03:53;;;;;;;14.80;12.10;;;4.60;99.40;;;;;;4977505;28;20229;-85
2022/12/07 11:06:58;;;;;;;17.83;11.23;;;4.60;99.90;;;;;;4982291;28;20241;-84
2022/12/07 11:09:42;;;;;;;14.60;11.27;;;4.40;99.90;;;;;;4987678;28;20213;-81
2022/12/07 11:12:21;;;;;;;14.67;11.67;;;4.50;99.90;;;;;;4977894;28;20183;-82
2022/12/07 11:15:00;;;;;;;14.23;11.60;;;4.70;99.90;;;;;;4979232;28;20650;-81
2022/12/07 11:17:35;;;;;;;12.40;11.00;;;4.70;99.90;;;;;;4986103;28;20191;-83
2022/12/07 11:20:13;;;;;;;13.80;11.57;;;4.80;99.90;;;;;;4980097;28;20202;-82
2022/12/07 11:22:42;;;;;;;14.23;11.37;;;4.70;99.70;;;;;;4988010;28;20182;-82
2022/12/07 11:25:33;;;;;;;13.33;11.93;;;4.60;99.90;;;;;;4983246;28;20546;-82
2022/12/07 11:28:15;;;;;;;15.33;12.90;;;4.60;99.90;;;;;;4986652;28;20187;-82
2022/12/07 11:30:57;;;;;;;14.07;12.57;;;4.50;99.90;;;;;;4991940;28;20214;-83
2022/12/07 11:33:47;;;;;;;13.90;11.77;;;4.60;99.90;;;;;;4987037;28;20730;-82
2022/12/07 11:36:40;;;;;;;16.07;12.57;;;4.80;99.90;;;;;;4981250;28;20201;-82
2022/12/07 11:39:49;;;;;;;14.93;12.17;;;4.60;99.90;;;;;;4989021;28;20237;-83
2022/12/07 11:42:58;;;;;;;14.77;13.00;;;4.80;99.90;;;;;;4979638;28;20203;-83
2022/12/07 11:45:27;;;;;;;16.87;13.43;;;4.70;99.90;;;;;;4951858;29;20205;-84
2022/12/07 11:47:55;;;;;;;16.27;13.53;;;4.70;99.90;;;;;;4984190;28;20202;-82
2022/12/07 11:51:01;;;;;;;15.80;12.63;;;4.70;99.90;;;;;;4992373;28;20215;-82
2022/12/07 11:53:45;;;;;;;14.37;11.97;;;4.70;99.90;;;;;;4989028;28;20269;-82
2022/12/07 11:56:16;;;;;;;13.77;11.63;;;4.70;99.90;;;;;;4984554;28;20191;-83
2022/12/07 11:58:48;;;;;;;15.47;12.50;;;4.70;99.90;;;;;;4980932;28;20185;-81
2022/12/07 12:01:17;;;;;;;13.80;11.93;;;4.80;99.90;;;;;;4982810;28;20183;-84
2022/12/07 12:03:49;;;;;;;15.63;12.57;;;4.80;99.90;;;;;;5002714;28;20228;-82
2022/12/07 12:06:15;;;;;;;13.93;12.63;;;4.70;99.90;;;;;;4981448;28;20560;-82
2022/12/07 12:09:13;;;;;;;14.60;12.10;;;4.70;99.90;;;;;;4984081;28;20251;-83
2022/12/07 12:12:11;;;;;;;13.50;12.10;;;4.90;99.90;;;;;;4983553;28;20720;-83
2022/12/07 12:14:55;;;;;;;15.73;13.33;;;5.00;99.90;;;;;;4982337;28;20285;-82
2022/12/07 12:17:36;;;;;;;15.07;12.93;;;4.90;99.90;;;;;;4981592;28;20186;-81
2022/12/07 12:20:17;;;;;;;15.37;13.20;;;4.80;99.90;;;;;;4981902;28;20201;-82
2022/12/07 12:22:46;;;;;;;15.93;13.00;;;4.70;99.90;;;;;;4979290;28;20262;-82
2022/12/07 12:25:40;;;;;;;15.40;12.57;;;4.80;99.90;;;;;;4994370;28;20245;-82
2022/12/07 12:28:06;;;;;;;18.17;12.80;;;4.80;99.90;;;;;;4995114;28;20679;-83
2022/12/07 12:30:37;;;;;;;16.40;12.80;;;4.90;99.90;;;;;;4987074;28;20203;-83
2022/12/07 12:33:23;;;;;;;16.23;12.97;;;5.00;99.90;;;;;;4982987;28;20589;-82
2022/12/07 12:36:17;;;;;;;17.83;13.33;;;4.90;99.90;;;;;;4980830;28;20788;-83
2022/12/07 12:38:58;;;;;;;15.87;12.77;;;5.00;99.90;;;;;;4988981;28;20701;-83
2022/12/07 12:42:05;;;;;;;15.60;12.33;;;5.00;99.90;;;;;;4984269;28;20234;-82
2022/12/07 12:44:33;;;;;;;16.80;13.23;;;5.00;99.90;;;;;;4982755;28;20214;-82
2022/12/07 12:46:59;;;;;;;22.77;13.50;;;4.90;99.90;;;;;;4990521;28;20735;-82
2022/12/07 12:49:27;;;;;;;13.90;12.43;;;5.00;99.90;;;;;;4983975;28;20270;-82
2022/12/07 12:51:57;;;;;;;15.77;12.97;;;5.00;99.90;;;;;;4981569;28;20186;-82
2022/12/07 12:54:26;;;;;;;13.77;12.17;;;5.00;99.90;;;;;;4980338;28;20209;-84
2022/12/07 12:57:03;;;;;;;13.93;11.53;;;5.10;99.90;;;;;;4980203;28;20199;-82
2022/12/07 12:59:30;;;;;;;17.60;12.53;;;5.10;99.90;;;;;;4981596;28;20729;-83